createdAt,value
2019-02-16T00:00:05.258Z,65.70
2019-02-16T00:01:07.879Z,65.60
2019-02-16T00:02:05.801Z,65.70
2019-02-16T00:03:05.851Z,65.60
2019-02-16T00:04:05.956Z,65.70
2019-02-16T00:05:07.568Z,65.80
2019-02-16T00:06:05.628Z,65.80
2019-02-16T00:07:08.236Z,65.80
2019-02-16T00:08:07.745Z,65.80
2019-02-16T00:09:08.242Z,65.80
2019-02-16T00:10:07.840Z,65.60
2019-02-16T00:11:05.805Z,65.80
2019-02-16T00:12:08.346Z,66.00
2019-02-16T00:13:07.744Z,66.00
2019-02-16T00:14:05.718Z,66.00
2019-02-16T00:15:05.929Z,66.00
2019-02-16T00:16:05.033Z,66.00
2019-02-16T00:17:05.135Z,66.10
2019-02-16T00:18:07.653Z,66.30
2019-02-16T00:19:05.713Z,66.30
2019-02-16T00:20:05.763Z,66.20
2019-02-16T00:21:05.109Z,66.30
2019-02-16T00:22:05.245Z,66.30
2019-02-16T00:23:07.984Z,66.40
2019-02-16T00:24:04.925Z,66.40
2019-02-16T00:25:04.998Z,66.40
2019-02-16T00:26:05.025Z,66.60
2019-02-16T00:27:05.105Z,66.70
2019-02-16T00:28:05.301Z,66.70
2019-02-16T00:29:07.879Z,66.60
2019-02-16T00:30:05.841Z,66.70
2019-02-16T00:31:08.453Z,66.70
2019-02-16T00:32:07.878Z,67.00
2019-02-16T00:33:05.835Z,67.00
2019-02-16T00:34:08.453Z,67.00
2019-02-16T00:35:05.545Z,66.90
2019-02-16T00:36:08.218Z,66.90
2019-02-16T00:37:05.126Z,66.80
2019-02-16T00:38:05.160Z,66.80
2019-02-16T00:39:05.223Z,66.80
2019-02-16T00:40:05.303Z,67.00
2019-02-16T00:41:05.388Z,67.10
2019-02-16T00:42:05.432Z,67.20
2019-02-16T00:43:05.664Z,67.20
2019-02-16T00:44:05.753Z,67.20
2019-02-16T00:45:05.629Z,67.30
2019-02-16T00:46:05.674Z,67.30
2019-02-16T00:47:08.293Z,67.30
2019-02-16T00:48:05.213Z,67.40
2019-02-16T00:49:05.378Z,67.60
2019-02-16T00:50:05.647Z,67.60
2019-02-16T00:51:14.120Z,67.50
2019-02-16T00:52:07.841Z,67.50
2019-02-16T00:53:05.864Z,67.50
2019-02-16T00:54:05.971Z,67.70
2019-02-16T00:55:10.058Z,67.80
2019-02-16T00:56:05.287Z,67.80
2019-02-16T00:57:08.011Z,67.70
2019-02-16T00:58:05.010Z,67.70
2019-02-16T00:59:07.599Z,67.70
2019-02-16T01:00:05.545Z,67.70
2019-02-16T01:01:10.643Z,67.90
2019-02-16T01:02:05.587Z,67.90
2019-02-16T01:03:05.636Z,68.00
2019-02-16T01:04:07.847Z,68.30
2019-02-16T01:05:05.769Z,68.20
2019-02-16T01:06:05.828Z,69.00
2019-02-16T01:07:08.609Z,68.80
2019-02-16T01:08:05.524Z,68.80
2019-02-16T01:09:05.648Z,68.80
2019-02-16T01:10:05.789Z,68.80
2019-02-16T01:11:05.914Z,68.90
2019-02-16T01:12:07.636Z,68.80
2019-02-16T01:13:10.744Z,68.80
2019-02-16T01:14:08.323Z,68.80
2019-02-16T01:15:05.235Z,68.80
2019-02-16T01:16:05.281Z,68.90
2019-02-16T01:17:05.389Z,69.00
2019-02-16T01:18:05.480Z,69.10
2019-02-16T01:19:08.193Z,69.00
2019-02-16T01:20:05.189Z,69.00
2019-02-16T01:21:05.196Z,69.00
2019-02-16T01:22:07.769Z,69.10
2019-02-16T01:23:08.392Z,69.10
2019-02-16T01:24:05.442Z,69.10
2019-02-16T01:25:08.037Z,69.10
2019-02-16T01:26:05.007Z,69.10
2019-02-16T01:27:05.111Z,69.30
2019-02-16T01:28:05.189Z,69.30
2019-02-16T01:29:05.362Z,69.40
2019-02-16T01:30:08.079Z,69.30
2019-02-16T01:31:05.056Z,69.30
2019-02-16T01:32:07.755Z,69.50
2019-02-16T01:33:05.740Z,69.50
2019-02-16T01:34:08.401Z,69.40
2019-02-16T01:35:07.934Z,69.30
2019-02-16T01:36:06.012Z,69.40
2019-02-16T01:37:05.212Z,69.30
2019-02-16T01:38:05.611Z,69.30
2019-02-16T01:39:05.706Z,69.40
2019-02-16T01:40:05.795Z,69.40
2019-02-16T01:41:05.980Z,69.40
2019-02-16T01:42:05.134Z,69.40
2019-02-16T01:43:05.265Z,69.40
2019-02-16T01:44:05.395Z,69.40
2019-02-16T01:45:05.469Z,69.40
2019-02-16T01:46:08.067Z,69.50
2019-02-16T01:47:04.981Z,69.50
2019-02-16T01:48:05.037Z,69.50
2019-02-16T01:49:05.138Z,69.60
2019-02-16T01:50:07.815Z,69.50
2019-02-16T01:51:05.849Z,69.50
2019-02-16T01:52:08.634Z,69.60
2019-02-16T01:53:08.175Z,69.70
2019-02-16T01:54:07.643Z,69.60
2019-02-16T01:55:08.133Z,69.60
2019-02-16T01:56:05.171Z,69.70
2019-02-16T01:57:05.297Z,69.60
2019-02-16T01:58:05.380Z,69.70
2019-02-16T01:59:05.503Z,69.60
2019-02-16T02:00:05.736Z,69.70
2019-02-16T02:01:05.881Z,69.70
2019-02-16T02:02:08.591Z,69.70
2019-02-16T02:03:08.091Z,69.60
2019-02-16T02:04:07.577Z,69.60
2019-02-16T02:05:05.644Z,69.60
2019-02-16T02:06:05.827Z,69.70
2019-02-16T02:07:06.074Z,69.80
2019-02-16T02:08:05.169Z,70.00
2019-02-16T02:09:05.330Z,70.10
2019-02-16T02:10:05.444Z,70.00
2019-02-16T02:11:05.474Z,70.30
2019-02-16T02:12:08.158Z,70.40
2019-02-16T02:13:05.101Z,70.40
2019-02-16T02:14:05.264Z,70.40
2019-02-16T02:15:05.371Z,70.50
2019-02-16T02:16:05.466Z,70.50
2019-02-16T02:17:08.288Z,70.50
2019-02-16T02:18:05.321Z,70.50
2019-02-16T02:19:05.398Z,70.50
2019-02-16T02:20:05.518Z,70.50
2019-02-16T02:21:05.630Z,70.60
2019-02-16T02:22:05.766Z,70.70
2019-02-16T02:23:10.928Z,70.60
2019-02-16T02:24:08.485Z,70.50
2019-02-16T02:25:05.603Z,70.60
2019-02-16T02:26:05.779Z,70.50
2019-02-16T02:27:10.915Z,70.70
2019-02-16T02:28:05.956Z,70.80
2019-02-16T02:29:05.033Z,70.70
2019-02-16T02:30:05.759Z,70.80
2019-02-16T02:31:05.875Z,70.60
2019-02-16T02:32:05.985Z,70.60
2019-02-16T02:33:05.082Z,70.70
2019-02-16T02:34:05.150Z,70.70
2019-02-16T02:35:07.883Z,70.50
2019-02-16T02:36:05.906Z,70.50
2019-02-16T02:37:04.991Z,70.50
2019-02-16T02:38:07.597Z,70.50
2019-02-16T02:39:05.559Z,70.50
2019-02-16T02:40:05.630Z,70.40
2019-02-16T02:41:08.255Z,70.50
2019-02-16T02:42:07.686Z,70.80
2019-02-16T02:43:05.703Z,70.80
2019-02-16T02:44:05.774Z,70.70
2019-02-16T02:45:08.508Z,70.80
2019-02-16T02:46:05.559Z,70.80
2019-02-16T02:47:08.219Z,71.00
2019-02-16T02:48:05.196Z,71.00
2019-02-16T02:49:05.348Z,71.10
2019-02-16T02:50:05.805Z,71.20
2019-02-16T02:51:05.995Z,71.00
2019-02-16T02:52:05.080Z,71.40
2019-02-16T02:53:05.141Z,71.40
2019-02-16T02:54:05.321Z,71.40
2019-02-16T02:55:05.360Z,71.30
2019-02-16T02:56:05.441Z,71.50
2019-02-16T02:57:05.455Z,71.50
2019-02-16T02:58:05.518Z,71.60
2019-02-16T02:59:05.693Z,71.60
2019-02-16T03:00:08.459Z,71.60
2019-02-16T03:01:05.412Z,71.60
2019-02-16T03:02:08.175Z,71.70
2019-02-16T03:03:07.708Z,71.90
2019-02-16T03:04:05.878Z,71.70
2019-02-16T03:05:07.629Z,72.00
2019-02-16T03:06:05.741Z,72.00
2019-02-16T03:07:05.964Z,72.00
2019-02-16T03:08:05.035Z,72.00
2019-02-16T03:09:07.606Z,72.30
2019-02-16T03:10:08.016Z,72.30
2019-02-16T03:11:05.000Z,72.30
2019-02-16T03:12:07.631Z,72.30
2019-02-16T03:13:05.552Z,72.20
2019-02-16T03:14:05.632Z,72.10
2019-02-16T03:15:05.801Z,72.00
2019-02-16T03:16:05.926Z,70.40
2019-02-16T03:17:07.573Z,72.00
2019-02-16T03:18:05.651Z,72.00
2019-02-16T03:19:08.287Z,72.20
2019-02-16T03:20:07.814Z,72.40
2019-02-16T03:21:08.407Z,72.40
2019-02-16T03:22:07.954Z,72.40
2019-02-16T03:23:05.998Z,72.40
2019-02-16T03:24:05.085Z,72.30
2019-02-16T03:25:05.172Z,72.20
2019-02-16T03:26:07.745Z,72.10
2019-02-16T03:27:08.350Z,72.00
2019-02-16T03:28:05.350Z,72.00
2019-02-16T03:29:05.507Z,72.00
2019-02-16T03:30:10.853Z,71.90
2019-02-16T03:31:05.826Z,72.00
2019-02-16T03:32:08.602Z,71.90
2019-02-16T03:33:05.746Z,71.90
2019-02-16T03:34:06.000Z,71.90
2019-02-16T03:35:10.305Z,71.80
2019-02-16T03:36:05.262Z,71.80
2019-02-16T03:37:05.470Z,71.80
2019-02-16T03:38:05.613Z,71.90
2019-02-16T03:39:05.678Z,71.80
2019-02-16T03:40:08.272Z,71.90
2019-02-16T03:41:05.260Z,71.90
2019-02-16T03:42:05.388Z,71.90
2019-02-16T03:43:05.497Z,71.70
2019-02-16T03:44:05.640Z,71.70
2019-02-16T03:45:05.751Z,71.70
2019-02-16T03:46:08.418Z,71.90
2019-02-16T03:47:05.384Z,71.90
2019-02-16T03:48:05.540Z,72.00
2019-02-16T03:49:05.648Z,72.00
2019-02-16T03:50:05.078Z,20.80
2019-02-16T03:51:05.481Z,72.00
2019-02-16T03:52:14.452Z,71.90
2019-02-16T03:53:05.656Z,72.00
2019-02-16T03:54:05.721Z,71.90
2019-02-16T03:55:05.821Z,71.90
2019-02-16T03:56:05.853Z,71.70
2019-02-16T03:57:05.887Z,71.70
2019-02-16T03:58:08.638Z,72.00
2019-02-16T03:59:10.811Z,72.00
2019-02-16T04:00:10.843Z,72.00
2019-02-16T04:01:08.431Z,72.00
2019-02-16T04:02:07.915Z,72.00
2019-02-16T04:03:05.963Z,72.00
2019-02-16T04:04:04.969Z,72.00
2019-02-16T04:05:05.033Z,72.10
2019-02-16T04:06:05.109Z,72.10
2019-02-16T04:07:05.115Z,72.10
2019-02-16T04:08:05.164Z,72.20
2019-02-16T04:09:05.263Z,72.10
2019-02-16T04:10:05.415Z,72.10
2019-02-16T04:11:05.659Z,72.40
2019-02-16T04:12:10.974Z,72.40
2019-02-16T04:13:05.051Z,72.40
2019-02-16T04:14:07.595Z,72.40
2019-02-16T04:15:05.594Z,72.50
2019-02-16T04:16:10.978Z,72.40
2019-02-16T04:17:05.183Z,72.50
2019-02-16T04:18:07.873Z,72.40
2019-02-16T04:19:05.865Z,72.50
2019-02-16T04:20:05.927Z,72.50
2019-02-16T04:21:07.483Z,72.60
2019-02-16T04:22:05.450Z,72.60
2019-02-16T04:23:08.174Z,72.50
2019-02-16T04:24:05.264Z,72.40
2019-02-16T04:25:05.355Z,72.50
2019-02-16T04:26:05.409Z,72.40
2019-02-16T04:27:05.541Z,72.40
2019-02-16T04:28:05.684Z,72.40
2019-02-16T04:29:05.772Z,72.40
2019-02-16T04:30:05.576Z,72.40
2019-02-16T04:31:05.749Z,72.50
2019-02-16T04:32:08.429Z,72.40
2019-02-16T04:33:05.457Z,72.40
2019-02-16T04:34:05.554Z,72.40
2019-02-16T04:35:08.241Z,72.30
2019-02-16T04:36:07.826Z,72.20
2019-02-16T04:37:05.784Z,72.30
2019-02-16T04:38:08.486Z,72.30
2019-02-16T04:39:05.472Z,72.30
2019-02-16T04:40:05.833Z,72.40
2019-02-16T04:41:08.457Z,72.40
2019-02-16T04:42:07.944Z,72.40
2019-02-16T04:43:05.854Z,72.40
2019-02-16T04:44:08.462Z,72.40
2019-02-16T04:45:05.360Z,72.40
2019-02-16T04:46:13.041Z,72.30
2019-02-16T04:47:07.645Z,72.40
2019-02-16T04:48:08.129Z,72.60
2019-02-16T04:49:05.119Z,72.60
2019-02-16T04:50:07.691Z,72.60
2019-02-16T04:51:05.724Z,72.60
2019-02-16T04:52:05.876Z,72.80
2019-02-16T04:53:08.576Z,72.70
2019-02-16T04:54:08.036Z,72.70
2019-02-16T04:55:06.011Z,72.60
2019-02-16T04:56:05.129Z,72.60
2019-02-16T04:57:05.200Z,72.50
2019-02-16T04:58:07.792Z,72.40
2019-02-16T04:59:08.200Z,72.20
2019-02-16T05:00:05.180Z,72.20
2019-02-16T05:01:05.223Z,72.20
2019-02-16T05:02:05.431Z,72.20
2019-02-16T05:03:10.855Z,72.10
2019-02-16T05:04:05.917Z,72.10
2019-02-16T05:05:12.658Z,72.00
2019-02-16T05:06:05.572Z,72.10
2019-02-16T05:07:05.632Z,71.90
2019-02-16T05:08:05.802Z,71.80
2019-02-16T05:09:08.462Z,71.70
2019-02-16T05:10:07.950Z,71.60
2019-02-16T05:11:08.542Z,71.50
2019-02-16T05:12:08.176Z,71.40
2019-02-16T05:13:07.698Z,71.50
2019-02-16T05:14:08.162Z,71.50
2019-02-16T05:15:07.666Z,71.40
2019-02-16T05:16:05.626Z,71.40
2019-02-16T05:17:05.982Z,71.30
2019-02-16T05:18:05.092Z,71.20
2019-02-16T05:19:05.294Z,71.20
2019-02-16T05:20:05.526Z,71.20
2019-02-16T05:21:05.565Z,71.10
2019-02-16T05:22:08.167Z,70.90
2019-02-16T05:23:05.494Z,70.90
2019-02-16T05:24:05.679Z,70.90
2019-02-16T05:25:08.655Z,70.70
2019-02-16T05:26:08.193Z,70.50
2019-02-16T05:27:05.229Z,70.50
2019-02-16T05:28:05.363Z,70.40
2019-02-16T05:29:05.510Z,70.30
2019-02-16T05:30:05.583Z,70.20
2019-02-16T05:31:05.640Z,70.20
2019-02-16T05:32:08.318Z,70.00
2019-02-16T05:33:07.883Z,70.10
2019-02-16T05:34:08.342Z,70.00
2019-02-16T05:35:07.731Z,69.90
2019-02-16T05:36:05.770Z,69.90
2019-02-16T05:37:05.206Z,69.80
2019-02-16T05:38:05.318Z,69.80
2019-02-16T05:39:05.391Z,69.70
2019-02-16T05:40:05.541Z,69.60
2019-02-16T05:41:05.616Z,69.40
2019-02-16T05:42:08.220Z,69.40
2019-02-16T05:43:05.169Z,69.30
2019-02-16T05:44:07.745Z,69.20
2019-02-16T05:45:05.841Z,69.20
2019-02-16T05:46:08.602Z,69.10
2019-02-16T05:47:05.552Z,69.10
2019-02-16T05:48:05.706Z,69.10
2019-02-16T05:49:05.772Z,69.10
2019-02-16T05:50:08.331Z,69.00
2019-02-16T05:51:10.486Z,69.00
2019-02-16T05:52:05.617Z,69.00
2019-02-16T05:53:05.834Z,68.90
2019-02-16T05:54:06.115Z,68.90
2019-02-16T05:55:07.766Z,68.80
2019-02-16T05:56:05.692Z,68.80
2019-02-16T05:57:05.805Z,68.80
2019-02-16T05:58:05.906Z,68.80
2019-02-16T05:59:11.161Z,68.70
2019-02-16T06:00:05.276Z,68.70
2019-02-16T06:01:05.398Z,68.70
2019-02-16T06:02:10.523Z,68.50
2019-02-16T06:03:05.704Z,68.50
2019-02-16T06:04:05.975Z,68.50
2019-02-16T06:05:10.172Z,68.50
2019-02-16T06:06:05.209Z,68.50
2019-02-16T06:07:10.544Z,68.40
2019-02-16T06:08:05.497Z,68.30
2019-02-16T06:09:08.131Z,68.40
2019-02-16T06:10:05.106Z,68.40
2019-02-16T06:11:06.451Z,68.40
2019-02-16T06:12:08.109Z,68.30
2019-02-16T06:13:07.609Z,68.30
2019-02-16T06:14:05.560Z,68.30
2019-02-16T06:15:05.715Z,68.30
2019-02-16T06:16:08.337Z,68.30
2019-02-16T06:17:05.380Z,68.30
2019-02-16T06:18:05.621Z,68.30
2019-02-16T06:19:05.909Z,68.30
2019-02-16T06:20:05.120Z,68.20
2019-02-16T06:21:07.708Z,68.20
2019-02-16T06:22:05.605Z,68.20
2019-02-16T06:23:08.303Z,68.20
2019-02-16T06:24:05.251Z,68.10
2019-02-16T06:25:05.326Z,68.10
2019-02-16T06:26:07.955Z,68.20
2019-02-16T06:27:08.556Z,68.20
2019-02-16T06:28:05.667Z,68.10
2019-02-16T06:29:05.080Z,68.10
2019-02-16T06:30:08.070Z,68.00
2019-02-16T06:31:05.040Z,68.00
2019-02-16T06:32:05.111Z,68.00
2019-02-16T06:33:05.149Z,67.90
2019-02-16T06:34:07.739Z,68.00
2019-02-16T06:35:05.799Z,68.00
2019-02-16T06:36:06.083Z,68.00
2019-02-16T06:37:05.186Z,68.00
2019-02-16T06:38:05.432Z,67.90
2019-02-16T06:39:07.690Z,67.90
2019-02-16T06:40:08.198Z,68.00
2019-02-16T06:41:05.112Z,68.10
2019-02-16T06:42:07.812Z,68.00
2019-02-16T06:43:06.048Z,68.00
2019-02-16T06:44:05.173Z,68.00
2019-02-16T06:45:05.251Z,68.00
2019-02-16T06:46:05.356Z,68.00
2019-02-16T06:47:05.554Z,67.90
2019-02-16T06:48:05.805Z,67.80
2019-02-16T06:49:05.889Z,67.80
2019-02-16T06:50:06.047Z,67.70
2019-02-16T06:51:05.166Z,67.60
2019-02-16T06:52:07.834Z,67.60
2019-02-16T06:53:13.767Z,67.50
2019-02-16T06:54:06.061Z,67.50
2019-02-16T06:55:05.232Z,67.60
2019-02-16T06:56:05.342Z,67.50
2019-02-16T06:57:05.442Z,67.40
2019-02-16T06:58:05.589Z,67.40
2019-02-16T06:59:05.695Z,67.40
2019-02-16T07:00:05.764Z,67.20
2019-02-16T07:01:05.975Z,67.20
2019-02-16T07:02:05.098Z,67.20
2019-02-16T07:03:05.183Z,67.20
2019-02-16T07:04:06.017Z,67.30
2019-02-16T07:05:07.859Z,67.30
2019-02-16T07:06:08.345Z,67.30
2019-02-16T07:07:07.847Z,67.30
2019-02-16T07:08:05.826Z,67.20
2019-02-16T07:09:05.937Z,67.40
2019-02-16T07:10:05.200Z,67.40
2019-02-16T07:11:07.956Z,67.30
2019-02-16T07:12:05.897Z,67.30
2019-02-16T07:13:05.974Z,67.20
2019-02-16T07:14:05.045Z,67.00
2019-02-16T07:15:05.409Z,67.20
2019-02-16T07:16:13.062Z,67.40
2019-02-16T07:17:05.047Z,67.40
2019-02-16T07:18:07.800Z,67.80
2019-02-16T07:19:05.805Z,67.80
2019-02-16T07:20:08.106Z,67.90
2019-02-16T07:21:07.607Z,67.80
2019-02-16T07:22:08.032Z,67.80
2019-02-16T07:23:07.602Z,67.40
2019-02-16T07:24:05.726Z,67.60
2019-02-16T07:25:05.879Z,66.80
2019-02-16T07:26:05.964Z,66.70
2019-02-16T07:27:05.043Z,66.60
2019-02-16T07:28:05.369Z,66.60
2019-02-16T07:29:05.528Z,66.50
2019-02-16T07:30:06.030Z,66.20
2019-02-16T07:31:10.313Z,65.90
2019-02-16T07:32:05.282Z,65.90
2019-02-16T07:33:07.871Z,65.40
2019-02-16T07:34:11.064Z,65.30
2019-02-16T07:35:05.253Z,65.30
2019-02-16T07:36:07.850Z,65.00
2019-02-16T07:37:05.781Z,65.00
2019-02-16T07:38:05.956Z,64.70
2019-02-16T07:39:05.149Z,64.30
2019-02-16T07:40:05.167Z,64.20
2019-02-16T07:41:07.902Z,64.00
2019-02-16T07:42:06.000Z,64.00
2019-02-16T07:43:07.650Z,63.50
2019-02-16T07:44:05.585Z,63.40
2019-02-16T07:45:08.302Z,62.80
2019-02-16T07:46:05.398Z,62.80
2019-02-16T07:47:05.603Z,62.60
2019-02-16T07:48:08.266Z,62.20
2019-02-16T07:49:05.206Z,62.20
2019-02-16T07:50:10.438Z,61.70
2019-02-16T07:51:05.410Z,61.70
2019-02-16T07:52:08.012Z,61.40
2019-02-16T07:53:05.967Z,61.40
2019-02-16T07:54:07.598Z,60.90
2019-02-16T07:55:05.586Z,60.90
2019-02-16T07:56:05.739Z,60.60
2019-02-16T07:57:05.815Z,60.30
2019-02-16T07:58:05.488Z,60.40
2019-02-16T07:59:05.620Z,59.90
2019-02-16T08:00:05.176Z,60.10
2019-02-16T08:01:05.849Z,60.00
2019-02-16T08:02:05.976Z,59.40
2019-02-16T08:03:05.179Z,59.20
2019-02-16T08:04:05.417Z,59.00
2019-02-16T08:05:05.860Z,58.70
2019-02-16T08:06:08.445Z,58.60
2019-02-16T08:07:08.058Z,58.60
2019-02-16T08:08:07.665Z,58.40
2019-02-16T08:09:05.684Z,58.40
2019-02-16T08:10:05.772Z,58.20
2019-02-16T08:11:08.499Z,58.00
2019-02-16T08:12:05.469Z,58.00
2019-02-16T08:13:05.529Z,58.00
2019-02-16T08:14:08.123Z,57.90
2019-02-16T08:15:05.153Z,57.90
2019-02-16T08:16:05.535Z,57.70
2019-02-16T08:17:05.656Z,57.60
2019-02-16T08:18:10.775Z,57.30
2019-02-16T08:19:05.749Z,57.30
2019-02-16T08:20:08.424Z,56.60
2019-02-16T08:21:05.398Z,56.60
2019-02-16T08:22:05.565Z,56.40
2019-02-16T08:23:05.744Z,56.40
2019-02-16T08:24:05.890Z,56.40
2019-02-16T08:25:05.978Z,56.30
2019-02-16T08:26:05.757Z,56.50
2019-02-16T08:27:14.124Z,56.20
2019-02-16T08:28:07.642Z,56.20
2019-02-16T08:29:05.581Z,56.20
2019-02-16T08:30:05.103Z,56.10
2019-02-16T08:31:05.227Z,56.20
2019-02-16T08:32:07.808Z,56.00
2019-02-16T08:33:05.802Z,56.00
2019-02-16T08:34:05.949Z,56.00
2019-02-16T08:35:05.037Z,55.70
2019-02-16T08:36:05.134Z,55.90
2019-02-16T08:37:10.266Z,55.60
2019-02-16T08:38:05.167Z,55.60
2019-02-16T08:39:08.339Z,55.60
2019-02-16T08:40:05.410Z,55.60
2019-02-16T08:41:08.025Z,55.60
2019-02-16T08:42:08.651Z,55.50
2019-02-16T08:43:05.731Z,55.50
2019-02-16T08:44:05.921Z,55.50
2019-02-16T08:45:05.110Z,55.40
2019-02-16T08:46:07.724Z,55.30
2019-02-16T08:47:08.404Z,55.30
2019-02-16T08:48:05.390Z,55.30
2019-02-16T08:49:05.481Z,55.00
2019-02-16T08:50:10.719Z,55.10
2019-02-16T08:51:05.705Z,55.10
2019-02-16T08:52:05.842Z,54.70
2019-02-16T08:53:08.822Z,54.20
2019-02-16T08:54:10.848Z,54.30
2019-02-16T08:55:05.842Z,54.30
2019-02-16T08:56:08.496Z,54.50
2019-02-16T08:57:05.506Z,54.40
2019-02-16T08:58:05.815Z,54.50
2019-02-16T08:59:05.971Z,54.50
2019-02-16T09:00:05.103Z,54.50
2019-02-16T09:01:07.880Z,54.60
2019-02-16T09:02:05.926Z,54.60
2019-02-16T09:03:05.056Z,54.60
2019-02-16T09:04:05.190Z,54.70
2019-02-16T09:05:05.445Z,54.70
2019-02-16T09:06:05.612Z,54.60
2019-02-16T09:07:08.199Z,54.60
2019-02-16T09:08:05.149Z,54.60
2019-02-16T09:09:10.401Z,54.70
2019-02-16T09:10:10.400Z,54.70
2019-02-16T09:11:10.415Z,54.70
2019-02-16T09:12:06.380Z,54.60
2019-02-16T09:13:05.557Z,54.60
2019-02-16T09:14:05.746Z,54.40
2019-02-16T09:15:08.425Z,54.40
2019-02-16T09:16:05.480Z,54.40
2019-02-16T09:17:05.780Z,54.30
2019-02-16T09:18:11.134Z,54.30
2019-02-16T09:19:05.164Z,54.20
2019-02-16T09:20:05.277Z,54.30
2019-02-16T09:21:15.236Z,54.30
2019-02-16T09:22:05.318Z,54.20
2019-02-16T09:23:07.966Z,54.00
2019-02-16T09:24:13.546Z,53.70
2019-02-16T09:25:05.602Z,53.70
2019-02-16T09:26:08.198Z,53.40
2019-02-16T09:27:05.207Z,53.40
2019-02-16T09:28:07.841Z,53.10
2019-02-16T09:29:05.881Z,53.10
2019-02-16T09:30:05.299Z,53.10
2019-02-16T09:31:05.416Z,52.80
2019-02-16T09:32:08.058Z,52.70
2019-02-16T09:33:07.570Z,52.60
2019-02-16T09:34:05.603Z,52.60
2019-02-16T09:35:05.816Z,52.50
2019-02-16T09:36:05.956Z,52.40
2019-02-16T09:37:05.014Z,52.30
2019-02-16T09:38:07.763Z,52.20
2019-02-16T09:39:05.925Z,52.20
2019-02-16T09:40:07.606Z,51.00
2019-02-16T09:41:05.587Z,50.90
2019-02-16T09:42:08.326Z,50.90
2019-02-16T09:43:07.894Z,50.80
2019-02-16T09:44:06.036Z,50.80
2019-02-16T09:45:07.856Z,49.80
2019-02-16T09:46:05.982Z,49.80
2019-02-16T09:47:05.154Z,49.40
2019-02-16T09:48:05.421Z,49.40
2019-02-16T09:49:10.701Z,49.20
2019-02-16T09:50:08.360Z,48.50
2019-02-16T09:51:05.429Z,48.50
2019-02-16T09:52:05.561Z,48.30
2019-02-16T09:53:08.406Z,48.30
2019-02-16T09:54:08.951Z,48.30
2019-02-16T09:55:07.737Z,47.30
2019-02-16T09:56:05.727Z,47.20
2019-02-16T09:57:05.895Z,47.30
2019-02-16T09:58:07.559Z,46.90
2019-02-16T09:59:08.046Z,46.40
2019-02-16T10:00:05.201Z,46.30
2019-02-16T10:01:05.297Z,46.20
2019-02-16T10:02:07.917Z,45.90
2019-02-16T10:03:05.848Z,45.90
2019-02-16T10:04:05.951Z,45.70
2019-02-16T10:05:07.551Z,45.00
2019-02-16T10:06:08.001Z,45.20
2019-02-16T10:07:05.104Z,45.10
2019-02-16T10:08:07.787Z,45.30
2019-02-16T10:09:05.863Z,45.30
2019-02-16T10:10:08.615Z,45.10
2019-02-16T10:11:05.634Z,45.10
2019-02-16T10:12:05.792Z,44.80
2019-02-16T10:13:05.994Z,45.00
2019-02-16T10:14:05.092Z,44.70
2019-02-16T10:15:07.364Z,44.90
2019-02-16T10:16:05.535Z,42.80
2019-02-16T10:17:05.754Z,42.50
2019-02-16T10:18:06.014Z,41.40
2019-02-16T10:19:07.718Z,40.60
2019-02-16T10:20:08.388Z,39.30
2019-02-16T10:21:05.537Z,39.40
2019-02-16T10:22:05.817Z,40.00
2019-02-16T10:23:06.041Z,39.70
2019-02-16T10:24:07.811Z,38.80
2019-02-16T10:25:08.440Z,38.90
2019-02-16T10:26:07.903Z,38.20
2019-02-16T10:27:05.950Z,38.10
2019-02-16T10:28:05.102Z,38.10
2019-02-16T10:29:05.157Z,37.30
2019-02-16T10:30:08.073Z,36.20
2019-02-16T10:31:07.653Z,35.40
2019-02-16T10:32:05.625Z,35.30
2019-02-16T10:33:05.796Z,35.80
2019-02-16T10:34:05.913Z,35.40
2019-02-16T10:35:05.132Z,35.90
2019-02-16T10:36:05.189Z,34.80
2019-02-16T10:37:05.321Z,35.60
2019-02-16T10:38:07.942Z,35.90
2019-02-16T10:39:06.053Z,35.90
2019-02-16T10:40:05.196Z,35.60
2019-02-16T10:41:05.400Z,35.70
2019-02-16T10:42:05.505Z,36.00
2019-02-16T10:43:08.226Z,35.80
2019-02-16T10:44:07.765Z,35.50
2019-02-16T10:45:08.414Z,34.40
2019-02-16T10:46:07.875Z,33.60
2019-02-16T10:47:05.910Z,33.60
2019-02-16T10:48:04.994Z,32.60
2019-02-16T10:49:07.274Z,33.20
2019-02-16T10:50:10.314Z,33.30
2019-02-16T10:51:05.305Z,33.40
2019-02-16T10:52:05.066Z,33.00
2019-02-16T10:53:05.183Z,33.50
2019-02-16T10:54:07.937Z,33.70
2019-02-16T10:55:11.132Z,33.80
2019-02-16T10:56:07.707Z,33.00
2019-02-16T10:57:05.657Z,33.10
2019-02-16T10:58:05.731Z,32.20
2019-02-16T10:59:08.231Z,33.10
2019-02-16T11:00:05.357Z,33.00
2019-02-16T11:01:05.507Z,33.30
2019-02-16T11:02:08.227Z,33.00
2019-02-16T11:03:07.783Z,32.70
2019-02-16T11:04:05.895Z,32.70
2019-02-16T11:05:05.207Z,32.10
2019-02-16T11:06:05.340Z,32.30
2019-02-16T11:07:05.513Z,31.20
2019-02-16T11:08:08.330Z,30.50
2019-02-16T11:09:05.374Z,30.40
2019-02-16T11:10:05.448Z,31.10
2019-02-16T11:11:05.604Z,31.40
2019-02-16T11:12:08.332Z,31.00
2019-02-16T11:13:05.397Z,31.10
2019-02-16T11:14:05.623Z,31.00
2019-02-16T11:15:10.905Z,30.90
2019-02-16T11:16:08.288Z,30.90
2019-02-16T11:17:05.327Z,30.90
2019-02-16T11:18:05.635Z,31.30
2019-02-16T11:19:05.793Z,31.30
2019-02-16T11:20:08.437Z,30.60
2019-02-16T11:21:05.446Z,30.50
2019-02-16T11:22:05.540Z,30.10
2019-02-16T11:23:08.187Z,42.60
2019-02-16T11:24:07.762Z,30.40
2019-02-16T11:25:08.273Z,30.70
2019-02-16T11:26:05.360Z,30.70
2019-02-16T11:27:05.524Z,30.30
2019-02-16T11:28:08.231Z,29.50
2019-02-16T11:29:05.297Z,29.50
2019-02-16T11:30:05.492Z,29.40
2019-02-16T11:31:05.677Z,29.90
2019-02-16T11:32:05.968Z,30.10
2019-02-16T11:33:05.082Z,28.80
2019-02-16T11:34:07.703Z,29.20
2019-02-16T11:35:05.661Z,29.30
2019-02-16T11:36:08.380Z,28.30
2019-02-16T11:37:05.454Z,28.30
2019-02-16T11:38:05.489Z,27.30
2019-02-16T11:39:05.694Z,27.00
2019-02-16T11:40:08.329Z,27.10
2019-02-16T11:41:16.835Z,27.00
2019-02-16T11:42:05.452Z,26.90
2019-02-16T11:43:05.617Z,27.50
2019-02-16T11:44:05.711Z,28.00
2019-02-16T11:45:08.301Z,27.60
2019-02-16T11:46:07.847Z,26.90
2019-02-16T11:47:05.994Z,27.00
2019-02-16T11:48:05.245Z,27.80
2019-02-16T11:49:05.383Z,27.80
2019-02-16T11:50:05.473Z,27.50
2019-02-16T11:51:08.111Z,28.30
2019-02-16T11:52:05.104Z,28.20
2019-02-16T11:53:12.948Z,28.60
2019-02-16T11:54:08.454Z,28.40
2019-02-16T11:55:05.544Z,28.30
2019-02-16T11:56:05.706Z,28.10
2019-02-16T11:57:08.311Z,28.20
2019-02-16T11:58:05.397Z,28.20
2019-02-16T11:59:07.987Z,27.10
2019-02-16T12:00:05.953Z,27.10
2019-02-16T12:01:05.160Z,27.20
2019-02-16T12:02:05.288Z,27.80
2019-02-16T12:03:05.401Z,27.80
2019-02-16T12:04:08.053Z,26.80
2019-02-16T12:05:07.656Z,26.60
2019-02-16T12:06:05.694Z,26.50
2019-02-16T12:07:08.318Z,26.90
2019-02-16T12:08:07.981Z,26.60
2019-02-16T12:09:05.065Z,26.60
2019-02-16T12:10:05.164Z,26.80
2019-02-16T12:11:05.478Z,27.50
2019-02-16T12:12:05.642Z,27.50
2019-02-16T12:13:05.953Z,27.90
2019-02-16T12:14:07.712Z,26.90
2019-02-16T12:15:08.215Z,27.10
2019-02-16T12:16:07.711Z,27.60
2019-02-16T12:17:05.841Z,27.60
2019-02-16T12:18:05.949Z,27.40
2019-02-16T12:19:07.612Z,27.50
2019-02-16T12:20:08.201Z,27.50
2019-02-16T12:21:07.794Z,27.30
2019-02-16T12:22:08.302Z,27.30
2019-02-16T12:23:07.771Z,27.30
2019-02-16T12:24:05.836Z,27.20
2019-02-16T12:25:06.487Z,26.00
2019-02-16T12:26:05.673Z,26.20
2019-02-16T12:27:08.366Z,26.90
2019-02-16T12:28:05.378Z,26.80
2019-02-16T12:29:05.542Z,26.80
2019-02-16T12:30:05.950Z,26.50
2019-02-16T12:31:05.090Z,25.90
2019-02-16T12:32:05.163Z,25.80
2019-02-16T12:33:05.344Z,26.00
2019-02-16T12:34:05.705Z,25.30
2019-02-16T12:35:05.754Z,26.00
2019-02-16T12:36:05.884Z,24.80
2019-02-16T12:37:05.188Z,24.60
2019-02-16T12:38:05.570Z,23.80
2019-02-16T12:39:05.821Z,24.30
2019-02-16T12:40:07.482Z,24.20
2019-02-16T12:41:08.019Z,24.90
2019-02-16T12:42:07.564Z,24.90
2019-02-16T12:43:05.543Z,24.90
2019-02-16T12:44:05.637Z,25.40
2019-02-16T12:45:08.255Z,24.40
2019-02-16T12:46:05.199Z,24.50
2019-02-16T12:47:05.351Z,24.40
2019-02-16T12:48:07.953Z,24.70
2019-02-16T12:49:05.990Z,24.80
2019-02-16T12:50:05.233Z,25.10
2019-02-16T12:51:07.871Z,24.80
2019-02-16T12:52:11.015Z,25.40